Urb Melendez, Puerto Rico
Current Conditions -  °F | °C
As of 3:53 AM on Sunday 23 Nov 2014 (Local Time) from TJNR Reporting Station
Clear Clear  
Wind Chill: 80°   Ceiling: Unl
Heat Index: 84°   Visibility: 10mi
Dew Point: 72°   Wind: 12mph
Humidity: 76%   Direction: 90°E
Pressure: 30"   Gusts: NA
Location:  18.3304°N, 65.6573°W
Report Text: TJNR 230753Z AUTO 09010KT 10SM CLR 27/22 A3000 RMK AO2 SLP159 T02670222 $
Loading
Personal Weather Stations






























Interactive Weather Map New forecast layout! Learn more

10-Day Weather Forecast

Advertisements
Track Severe Weather on mobile